sensor_id;sensor_type;location;lat;lon;timestamp;P1;durP1;ratioP1;P2;durP2;ratioP2
29466;SDS011;60968;37.490;-122.288;2023-02-15T00:02:06;18.23;;;2.93;;
29466;SDS011;60968;37.490;-122.288;2023-02-15T00:05:07;15.97;;;2.17;;
29466;SDS011;60968;37.490;-122.288;2023-02-15T00:08:08;11.13;;;2.03;;
29466;SDS011;60968;37.490;-122.288;2023-02-15T00:11:10;18.80;;;3.17;;
29466;SDS011;60968;37.490;-122.288;2023-02-15T00:14:17;17.87;;;2.47;;
29466;SDS011;60968;37.490;-122.288;2023-02-15T00:17:20;15.63;;;2.50;;
29466;SDS011;60968;37.490;-122.288;2023-02-15T00:20:21;9.03;;;2.00;;
29466;SDS011;60968;37.490;-122.288;2023-02-15T00:23:22;14.27;;;2.47;;
29466;SDS011;60968;37.490;-122.288;2023-02-15T00:26:23;15.47;;;2.17;;
29466;SDS011;60968;37.490;-122.288;2023-02-15T00:29:25;22.83;;;3.10;;
29466;SDS011;60968;37.490;-122.288;2023-02-15T00:32:26;19.23;;;2.70;;
29466;SDS011;60968;37.490;-122.288;2023-02-15T00:35:26;17.00;;;2.67;;
29466;SDS011;60968;37.490;-122.288;2023-02-15T00:38:27;10.33;;;2.37;;
29466;SDS011;60968;37.490;-122.288;2023-02-15T00:41:30;21.23;;;3.50;;
29466;SDS011;60968;37.490;-122.288;2023-02-15T00:44:32;21.90;;;3.00;;
29466;SDS011;60968;37.490;-122.288;2023-02-15T00:47:33;21.90;;;3.67;;
29466;SDS011;60968;37.490;-122.288;2023-02-15T00:50:35;16.57;;;2.93;;
29466;SDS011;60968;37.490;-122.288;2023-02-15T00:53:35;17.47;;;2.80;;
29466;SDS011;60968;37.490;-122.288;2023-02-15T00:56:37;21.83;;;3.67;;
29466;SDS011;60968;37.490;-122.288;2023-02-15T00:59:38;14.90;;;2.40;;
29466;SDS011;60968;37.490;-122.288;2023-02-15T01:02:39;13.23;;;2.37;;
29466;SDS011;60968;37.490;-122.288;2023-02-15T01:05:41;14.90;;;2.27;;
29466;SDS011;60968;37.490;-122.288;2023-02-15T01:08:42;19.00;;;2.73;;
29466;SDS011;60968;37.490;-122.288;2023-02-15T01:11:46;12.70;;;2.07;;
29466;SDS011;60968;37.490;-122.288;2023-02-15T01:14:47;14.47;;;1.93;;
29466;SDS011;60968;37.490;-122.288;2023-02-15T01:17:48;12.03;;;2.37;;
29466;SDS011;60968;37.490;-122.288;2023-02-15T01:20:48;10.40;;;1.70;;
29466;SDS011;60968;37.490;-122.288;2023-02-15T01:23:49;13.00;;;2.07;;
29466;SDS011;60968;37.490;-122.288;2023-02-15T01:26:50;9.27;;;1.73;;
29466;SDS011;60968;37.490;-122.288;2023-02-15T01:29:51;11.03;;;2.20;;
29466;SDS011;60968;37.490;-122.288;2023-02-15T01:32:52;15.20;;;1.93;;
29466;SDS011;60968;37.490;-122.288;2023-02-15T01:35:57;15.57;;;2.43;;
29466;SDS011;60968;37.490;-122.288;2023-02-15T01:39:00;16.83;;;2.50;;
29466;SDS011;60968;37.490;-122.288;2023-02-15T01:42:02;14.10;;;2.00;;
29466;SDS011;60968;37.490;-122.288;2023-02-15T01:45:04;18.67;;;2.30;;
29466;SDS011;60968;37.490;-122.288;2023-02-15T01:48:22;14.90;;;2.40;;
29466;SDS011;60968;37.490;-122.288;2023-02-15T01:51:28;16.70;;;1.57;;
29466;SDS011;60968;37.490;-122.288;2023-02-15T01:54:33;9.77;;;2.23;;
29466;SDS011;60968;37.490;-122.288;2023-02-15T01:57:36;17.83;;;2.50;;
29466;SDS011;60968;37.490;-122.288;2023-02-15T02:00:38;14.57;;;2.67;;
29466;SDS011;60968;37.490;-122.288;2023-02-15T02:06:59;15.53;;;2.30;;
29466;SDS011;60968;37.490;-122.288;2023-02-15T02:10:03;11.40;;;2.13;;
29466;SDS011;60968;37.490;-122.288;2023-02-15T02:13:05;16.20;;;2.33;;
29466;SDS011;60968;37.490;-122.288;2023-02-15T02:29:56;21.07;;;3.03;;
29466;SDS011;60968;37.490;-122.288;2023-02-15T02:36:48;14.23;;;2.90;;
29466;SDS011;60968;37.490;-122.288;2023-02-15T02:40:09;24.90;;;3.97;;
29466;SDS011;60968;37.490;-122.288;2023-02-15T02:46:36;20.30;;;2.60;;
29466;SDS011;60968;37.490;-122.288;2023-02-15T02:50:01;17.43;;;2.33;;
29466;SDS011;60968;37.490;-122.288;2023-02-15T02:53:07;10.30;;;2.30;;
29466;SDS011;60968;37.490;-122.288;2023-02-15T02:56:17;20.13;;;2.67;;
29466;SDS011;60968;37.490;-122.288;2023-02-15T02:59:33;10.87;;;2.20;;
29466;SDS011;60968;37.490;-122.288;2023-02-15T03:02:43;18.17;;;2.77;;
29466;SDS011;60968;37.490;-122.288;2023-02-15T03:05:47;29.77;;;3.10;;
29466;SDS011;60968;37.490;-122.288;2023-02-15T03:08:55;15.57;;;2.77;;
29466;SDS011;60968;37.490;-122.288;2023-02-15T03:12:11;15.07;;;2.50;;
29466;SDS011;60968;37.490;-122.288;2023-02-15T03:15:18;17.43;;;2.90;;
29466;SDS011;60968;37.490;-122.288;2023-02-15T03:18:22;20.20;;;4.10;;
29466;SDS011;60968;37.490;-122.288;2023-02-15T03:21:31;17.93;;;3.10;;
29466;SDS011;60968;37.490;-122.288;2023-02-15T03:24:56;16.90;;;2.73;;
29466;SDS011;60968;37.490;-122.288;2023-02-15T03:28:18;17.60;;;2.43;;
29466;SDS011;60968;37.490;-122.288;2023-02-15T03:31:46;19.67;;;3.33;;
29466;SDS011;60968;37.490;-122.288;2023-02-15T03:34:52;19.73;;;2.60;;
29466;SDS011;60968;37.490;-122.288;2023-02-15T03:37:57;17.73;;;2.87;;
29466;SDS011;60968;37.490;-122.288;2023-02-15T03:41:01;15.27;;;2.67;;
29466;SDS011;60968;37.490;-122.288;2023-02-15T03:44:06;15.67;;;2.17;;
29466;SDS011;60968;37.490;-122.288;2023-02-15T03:47:13;17.93;;;3.10;;
29466;SDS011;60968;37.490;-122.288;2023-02-15T03:50:21;12.47;;;2.57;;
29466;SDS011;60968;37.490;-122.288;2023-02-15T03:53:31;12.73;;;2.30;;
29466;SDS011;60968;37.490;-122.288;2023-02-15T03:56:33;21.63;;;2.60;;
29466;SDS011;60968;37.490;-122.288;2023-02-15T03:59:35;20.97;;;2.43;;
29466;SDS011;60968;37.490;-122.288;2023-02-15T04:02:38;21.93;;;3.27;;
29466;SDS011;60968;37.490;-122.288;2023-02-15T04:05:49;21.60;;;3.60;;
29466;SDS011;60968;37.490;-122.288;2023-02-15T04:08:50;16.80;;;2.30;;
29466;SDS011;60968;37.490;-122.288;2023-02-15T04:11:50;19.27;;;2.90;;
29466;SDS011;60968;37.490;-122.288;2023-02-15T04:14:51;29.10;;;3.60;;
29466;SDS011;60968;37.490;-122.288;2023-02-15T04:17:52;12.20;;;2.47;;
29466;SDS011;60968;37.490;-122.288;2023-02-15T04:20:53;15.13;;;2.97;;
29466;SDS011;60968;37.490;-122.288;2023-02-15T04:23:54;11.73;;;2.20;;
29466;SDS011;60968;37.490;-122.288;2023-02-15T04:26:55;10.90;;;1.57;;
29466;SDS011;60968;37.490;-122.288;2023-02-15T04:29:56;12.37;;;2.30;;
29466;SDS011;60968;37.490;-122.288;2023-02-15T04:32:57;11.20;;;2.10;;
29466;SDS011;60968;37.490;-122.288;2023-02-15T04:35:57;11.00;;;1.90;;
29466;SDS011;60968;37.490;-122.288;2023-02-15T04:38:58;7.87;;;1.90;;
29466;SDS011;60968;37.490;-122.288;2023-02-15T04:41:59;10.70;;;1.63;;
29466;SDS011;60968;37.490;-122.288;2023-02-15T04:45:01;8.03;;;1.70;;
29466;SDS011;60968;37.490;-122.288;2023-02-15T04:48:02;5.60;;;1.77;;
29466;SDS011;60968;37.490;-122.288;2023-02-15T04:51:06;5.03;;;1.33;;
29466;SDS011;60968;37.490;-122.288;2023-02-15T04:54:07;13.57;;;1.30;;
29466;SDS011;60968;37.490;-122.288;2023-02-15T04:57:08;5.93;;;1.53;;
29466;SDS011;60968;37.490;-122.288;2023-02-15T05:00:09;5.40;;;1.50;;
29466;SDS011;60968;37.490;-122.288;2023-02-15T05:03:10;5.47;;;1.40;;
29466;SDS011;60968;37.490;-122.288;2023-02-15T05:06:11;4.37;;;1.33;;
29466;SDS011;60968;37.490;-122.288;2023-02-15T05:09:13;12.43;;;1.33;;
29466;SDS011;60968;37.490;-122.288;2023-02-15T05:12:15;6.00;;;1.07;;
29466;SDS011;60968;37.490;-122.288;2023-02-15T05:15:16;5.23;;;1.37;;
29466;SDS011;60968;37.490;-122.288;2023-02-15T05:18:17;1.83;;;0.90;;
29466;SDS011;60968;37.490;-122.288;2023-02-15T05:21:19;2.80;;;0.80;;
29466;SDS011;60968;37.490;-122.288;2023-02-15T05:24:20;2.53;;;0.70;;
29466;SDS011;60968;37.490;-122.288;2023-02-15T05:27:22;4.60;;;1.03;;
29466;SDS011;60968;37.490;-122.288;2023-02-15T05:30:23;2.60;;;0.70;;
29466;SDS011;60968;37.490;-122.288;2023-02-15T05:33:24;3.03;;;0.70;;
29466;SDS011;60968;37.490;-122.288;2023-02-15T05:36:25;2.53;;;0.73;;
29466;SDS011;60968;37.490;-122.288;2023-02-15T05:39:26;2.47;;;0.60;;
29466;SDS011;60968;37.490;-122.288;2023-02-15T05:42:27;2.97;;;0.87;;
29466;SDS011;60968;37.490;-122.288;2023-02-15T05:45:28;3.50;;;0.83;;
29466;SDS011;60968;37.490;-122.288;2023-02-15T05:48:29;2.73;;;0.80;;
29466;SDS011;60968;37.490;-122.288;2023-02-15T05:51:32;3.47;;;0.70;;
29466;SDS011;60968;37.490;-122.288;2023-02-15T05:54:33;2.20;;;0.40;;
29466;SDS011;60968;37.490;-122.288;2023-02-15T05:57:34;2.37;;;0.80;;
29466;SDS011;60968;37.490;-122.288;2023-02-15T06:00:36;1.93;;;0.60;;
29466;SDS011;60968;37.490;-122.288;2023-02-15T06:03:37;2.93;;;0.77;;
29466;SDS011;60968;37.490;-122.288;2023-02-15T06:06:40;2.17;;;0.57;;
29466;SDS011;60968;37.490;-122.288;2023-02-15T06:09:41;4.60;;;0.70;;
29466;SDS011;60968;37.490;-122.288;2023-02-15T06:12:43;3.13;;;0.80;;
29466;SDS011;60968;37.490;-122.288;2023-02-15T06:15:45;2.30;;;0.50;;
29466;SDS011;60968;37.490;-122.288;2023-02-15T06:18:46;0.77;;;0.40;;
29466;SDS011;60968;37.490;-122.288;2023-02-15T06:21:48;2.70;;;0.60;;
29466;SDS011;60968;37.490;-122.288;2023-02-15T06:24:49;3.60;;;0.63;;
29466;SDS011;60968;37.490;-122.288;2023-02-15T06:27:50;1.23;;;0.50;;
29466;SDS011;60968;37.490;-122.288;2023-02-15T06:30:51;1.43;;;0.70;;
29466;SDS011;60968;37.490;-122.288;2023-02-15T06:33:52;2.23;;;0.70;;
29466;SDS011;60968;37.490;-122.288;2023-02-15T06:36:52;3.33;;;0.60;;
29466;SDS011;60968;37.490;-122.288;2023-02-15T06:39:53;2.13;;;0.50;;
29466;SDS011;60968;37.490;-122.288;2023-02-15T06:42:54;3.13;;;0.50;;
29466;SDS011;60968;37.490;-122.288;2023-02-15T06:45:55;3.90;;;0.70;;
29466;SDS011;60968;37.490;-122.288;2023-02-15T06:48:56;8.07;;;0.90;;
29466;SDS011;60968;37.490;-122.288;2023-02-15T06:51:57;5.10;;;0.70;;
29466;SDS011;60968;37.490;-122.288;2023-02-15T06:54:58;1.77;;;0.73;;
29466;SDS011;60968;37.490;-122.288;2023-02-15T06:57:58;3.97;;;0.60;;
29466;SDS011;60968;37.490;-122.288;2023-02-15T07:00:59;2.43;;;0.80;;
29466;SDS011;60968;37.490;-122.288;2023-02-15T07:04:00;3.20;;;0.93;;
29466;SDS011;60968;37.490;-122.288;2023-02-15T07:07:01;5.07;;;0.83;;
29466;SDS011;60968;37.490;-122.288;2023-02-15T07:10:02;5.37;;;1.03;;
29466;SDS011;60968;37.490;-122.288;2023-02-15T07:13:03;4.53;;;0.80;;
29466;SDS011;60968;37.490;-122.288;2023-02-15T07:16:04;4.47;;;0.87;;
29466;SDS011;60968;37.490;-122.288;2023-02-15T07:19:05;5.30;;;0.60;;
29466;SDS011;60968;37.490;-122.288;2023-02-15T07:22:08;3.23;;;0.57;;
29466;SDS011;60968;37.490;-122.288;2023-02-15T07:25:11;4.17;;;0.80;;
29466;SDS011;60968;37.490;-122.288;2023-02-15T07:28:12;4.70;;;0.83;;
29466;SDS011;60968;37.490;-122.288;2023-02-15T07:31:14;4.43;;;0.77;;
29466;SDS011;60968;37.490;-122.288;2023-02-15T07:34:15;5.77;;;0.73;;
29466;SDS011;60968;37.490;-122.288;2023-02-15T07:37:16;2.67;;;0.60;;
29466;SDS011;60968;37.490;-122.288;2023-02-15T07:40:17;5.40;;;0.70;;
29466;SDS011;60968;37.490;-122.288;2023-02-15T07:43:18;11.83;;;0.80;;
29466;SDS011;60968;37.490;-122.288;2023-02-15T07:46:19;3.43;;;0.60;;
29466;SDS011;60968;37.490;-122.288;2023-02-15T07:49:21;1.20;;;0.40;;
29466;SDS011;60968;37.490;-122.288;2023-02-15T07:52:22;3.37;;;0.53;;
29466;SDS011;60968;37.490;-122.288;2023-02-15T07:55:23;1.97;;;0.50;;
29466;SDS011;60968;37.490;-122.288;2023-02-15T07:58:24;4.67;;;0.90;;
29466;SDS011;60968;37.490;-122.288;2023-02-15T08:01:26;1.17;;;0.47;;
29466;SDS011;60968;37.490;-122.288;2023-02-15T08:04:30;1.13;;;0.60;;
29466;SDS011;60968;37.490;-122.288;2023-02-15T08:07:32;1.57;;;0.40;;
29466;SDS011;60968;37.490;-122.288;2023-02-15T08:10:34;2.67;;;0.80;;
29466;SDS011;60968;37.490;-122.288;2023-02-15T08:13:36;2.87;;;0.50;;
29466;SDS011;60968;37.490;-122.288;2023-02-15T08:16:40;1.00;;;0.50;;
29466;SDS011;60968;37.490;-122.288;2023-02-15T08:19:42;4.70;;;0.63;;
29466;SDS011;60968;37.490;-122.288;2023-02-15T08:22:43;3.17;;;1.10;;
29466;SDS011;60968;37.490;-122.288;2023-02-15T08:25:45;2.17;;;0.60;;
29466;SDS011;60968;37.490;-122.288;2023-02-15T08:28:47;6.63;;;0.60;;
29466;SDS011;60968;37.490;-122.288;2023-02-15T08:31:50;1.43;;;0.37;;
29466;SDS011;60968;37.490;-122.288;2023-02-15T08:34:54;2.67;;;0.43;;
29466;SDS011;60968;37.490;-122.288;2023-02-15T08:37:55;2.00;;;0.40;;
29466;SDS011;60968;37.490;-122.288;2023-02-15T08:40:56;1.30;;;0.50;;
29466;SDS011;60968;37.490;-122.288;2023-02-15T08:43:58;2.60;;;0.50;;
29466;SDS011;60968;37.490;-122.288;2023-02-15T08:47:00;2.47;;;0.33;;
29466;SDS011;60968;37.490;-122.288;2023-02-15T08:50:01;2.33;;;0.43;;
29466;SDS011;60968;37.490;-122.288;2023-02-15T08:53:02;1.57;;;0.43;;
29466;SDS011;60968;37.490;-122.288;2023-02-15T08:56:03;5.03;;;0.80;;
29466;SDS011;60968;37.490;-122.288;2023-02-15T08:59:04;1.03;;;0.50;;
29466;SDS011;60968;37.490;-122.288;2023-02-15T09:02:06;2.57;;;0.50;;
29466;SDS011;60968;37.490;-122.288;2023-02-15T09:05:09;2.67;;;0.63;;
29466;SDS011;60968;37.490;-122.288;2023-02-15T09:08:10;0.90;;;0.40;;
29466;SDS011;60968;37.490;-122.288;2023-02-15T09:11:15;1.60;;;0.50;;
29466;SDS011;60968;37.490;-122.288;2023-02-15T09:14:25;1.57;;;0.30;;
29466;SDS011;60968;37.490;-122.288;2023-02-15T09:17:28;2.67;;;0.50;;
29466;SDS011;60968;37.490;-122.288;2023-02-15T09:20:28;1.20;;;0.47;;
29466;SDS011;60968;37.490;-122.288;2023-02-15T09:23:29;1.50;;;0.40;;
29466;SDS011;60968;37.490;-122.288;2023-02-15T09:26:31;2.40;;;0.60;;
29466;SDS011;60968;37.490;-122.288;2023-02-15T09:29:35;1.30;;;0.50;;
29466;SDS011;60968;37.490;-122.288;2023-02-15T09:32:36;0.97;;;0.30;;
29466;SDS011;60968;37.490;-122.288;2023-02-15T09:35:37;0.33;;;0.20;;
29466;SDS011;60968;37.490;-122.288;2023-02-15T09:38:37;5.27;;;0.80;;
29466;SDS011;60968;37.490;-122.288;2023-02-15T09:54:58;1.03;;;0.40;;
29466;SDS011;60968;37.490;-122.288;2023-02-15T10:11:57;3.43;;;0.50;;
29466;SDS011;60968;37.490;-122.288;2023-02-15T10:19:32;1.37;;;0.33;;
29466;SDS011;60968;37.490;-122.288;2023-02-15T10:22:48;5.37;;;0.50;;
29466;SDS011;60968;37.490;-122.288;2023-02-15T10:29:28;2.63;;;0.50;;
29466;SDS011;60968;37.490;-122.288;2023-02-15T10:32:53;1.27;;;0.40;;
29466;SDS011;60968;37.490;-122.288;2023-02-15T10:49:36;2.67;;;0.37;;
29466;SDS011;60968;37.490;-122.288;2023-02-15T10:56:38;0.93;;;0.30;;
29466;SDS011;60968;37.490;-122.288;2023-02-15T11:03:20;2.00;;;0.50;;
29466;SDS011;60968;37.490;-122.288;2023-02-15T11:06:29;2.03;;;0.50;;
29466;SDS011;60968;37.490;-122.288;2023-02-15T11:09:48;0.93;;;0.33;;
29466;SDS011;60968;37.490;-122.288;2023-02-15T11:13:15;1.10;;;0.43;;
29466;SDS011;60968;37.490;-122.288;2023-02-15T11:16:20;0.70;;;0.30;;
29466;SDS011;60968;37.490;-122.288;2023-02-15T11:19:31;1.30;;;0.30;;
29466;SDS011;60968;37.490;-122.288;2023-02-15T11:22:40;0.40;;;0.20;;
29466;SDS011;60968;37.490;-122.288;2023-02-15T11:25:43;3.57;;;1.17;;
29466;SDS011;60968;37.490;-122.288;2023-02-15T11:28:51;3.37;;;0.30;;
29466;SDS011;60968;37.490;-122.288;2023-02-15T11:35:41;1.07;;;0.30;;
29466;SDS011;60968;37.490;-122.288;2023-02-15T11:38:49;0.63;;;0.27;;
29466;SDS011;60968;37.490;-122.288;2023-02-15T11:41:58;2.10;;;0.40;;
29466;SDS011;60968;37.490;-122.288;2023-02-15T11:45:07;1.13;;;0.20;;
29466;SDS011;60968;37.490;-122.288;2023-02-15T11:48:38;3.07;;;0.20;;
29466;SDS011;60968;37.490;-122.288;2023-02-15T11:51:40;1.27;;;0.30;;
29466;SDS011;60968;37.490;-122.288;2023-02-15T11:54:45;1.33;;;0.40;;
29466;SDS011;60968;37.490;-122.288;2023-02-15T11:57:58;1.30;;;0.20;;
29466;SDS011;60968;37.490;-122.288;2023-02-15T12:01:10;1.27;;;0.60;;
29466;SDS011;60968;37.490;-122.288;2023-02-15T12:07:52;1.10;;;0.30;;
29466;SDS011;60968;37.490;-122.288;2023-02-15T12:11:03;1.77;;;0.93;;
29466;SDS011;60968;37.490;-122.288;2023-02-15T12:14:09;1.10;;;0.40;;
29466;SDS011;60968;37.490;-122.288;2023-02-15T12:17:12;1.10;;;0.30;;
29466;SDS011;60968;37.490;-122.288;2023-02-15T12:23:21;1.73;;;0.50;;
29466;SDS011;60968;37.490;-122.288;2023-02-15T12:29:46;0.60;;;0.20;;
29466;SDS011;60968;37.490;-122.288;2023-02-15T12:36:30;0.50;;;0.20;;
29466;SDS011;60968;37.490;-122.288;2023-02-15T12:39:38;0.90;;;0.20;;
29466;SDS011;60968;37.490;-122.288;2023-02-15T12:42:53;2.33;;;0.40;;
29466;SDS011;60968;37.490;-122.288;2023-02-15T12:46:12;1.90;;;0.20;;
29466;SDS011;60968;37.490;-122.288;2023-02-15T12:49:25;0.27;;;0.20;;
29466;SDS011;60968;37.490;-122.288;2023-02-15T12:52:26;0.90;;;0.27;;
29466;SDS011;60968;37.490;-122.288;2023-02-15T12:55:27;0.77;;;0.27;;
29466;SDS011;60968;37.490;-122.288;2023-02-15T12:58:29;0.43;;;0.20;;
29466;SDS011;60968;37.490;-122.288;2023-02-15T13:01:32;0.33;;;0.10;;
29466;SDS011;60968;37.490;-122.288;2023-02-15T13:04:33;1.03;;;0.30;;
29466;SDS011;60968;37.490;-122.288;2023-02-15T13:07:35;0.53;;;0.10;;
29466;SDS011;60968;37.490;-122.288;2023-02-15T13:10:41;1.77;;;0.40;;
29466;SDS011;60968;37.490;-122.288;2023-02-15T13:13:54;2.93;;;0.27;;
29466;SDS011;60968;37.490;-122.288;2023-02-15T13:16:58;2.33;;;0.20;;
29466;SDS011;60968;37.490;-122.288;2023-02-15T13:20:06;0.50;;;0.20;;
29466;SDS011;60968;37.490;-122.288;2023-02-15T13:23:20;1.13;;;0.40;;
29466;SDS011;60968;37.490;-122.288;2023-02-15T13:26:29;0.77;;;0.20;;
29466;SDS011;60968;37.490;-122.288;2023-02-15T13:29:36;0.80;;;0.17;;
29466;SDS011;60968;37.490;-122.288;2023-02-15T13:32:38;0.67;;;0.10;;
29466;SDS011;60968;37.490;-122.288;2023-02-15T13:35:45;0.60;;;0.20;;
29466;SDS011;60968;37.490;-122.288;2023-02-15T13:42:46;0.53;;;0.13;;
29466;SDS011;60968;37.490;-122.288;2023-02-15T13:45:58;0.60;;;0.20;;
29466;SDS011;60968;37.490;-122.288;2023-02-15T13:49:13;1.37;;;0.20;;
29466;SDS011;60968;37.490;-122.288;2023-02-15T13:52:26;0.70;;;0.30;;
29466;SDS011;60968;37.490;-122.288;2023-02-15T13:58:55;1.40;;;0.20;;
29466;SDS011;60968;37.490;-122.288;2023-02-15T14:08:25;0.47;;;0.20;;
29466;SDS011;60968;37.490;-122.288;2023-02-15T14:11:53;2.03;;;0.20;;
29466;SDS011;60968;37.490;-122.288;2023-02-15T14:25:33;0.73;;;0.30;;
29466;SDS011;60968;37.490;-122.288;2023-02-15T14:31:53;1.60;;;0.37;;
29466;SDS011;60968;37.490;-122.288;2023-02-15T14:35:00;1.90;;;0.30;;
29466;SDS011;60968;37.490;-122.288;2023-02-15T14:44:36;0.53;;;0.20;;
29466;SDS011;60968;37.490;-122.288;2023-02-15T14:47:44;0.50;;;0.23;;
29466;SDS011;60968;37.490;-122.288;2023-02-15T14:51:07;3.60;;;0.30;;
29466;SDS011;60968;37.490;-122.288;2023-02-15T14:54:09;0.87;;;0.27;;
29466;SDS011;60968;37.490;-122.288;2023-02-15T14:57:31;0.30;;;0.20;;
29466;SDS011;60968;37.490;-122.288;2023-02-15T15:00:36;1.27;;;0.30;;
29466;SDS011;60968;37.490;-122.288;2023-02-15T15:03:43;0.77;;;0.30;;
29466;SDS011;60968;37.490;-122.288;2023-02-15T15:07:08;1.00;;;0.40;;
29466;SDS011;60968;37.490;-122.288;2023-02-15T15:23:04;1.20;;;0.30;;
29466;SDS011;60968;37.490;-122.288;2023-02-15T15:26:22;0.80;;;0.40;;
29466;SDS011;60968;37.490;-122.288;2023-02-15T15:29:40;1.10;;;0.60;;
29466;SDS011;60968;37.490;-122.288;2023-02-15T15:39:50;1.60;;;0.30;;
29466;SDS011;60968;37.490;-122.288;2023-02-15T15:49:57;3.17;;;0.40;;
29466;SDS011;60968;37.490;-122.288;2023-02-15T15:53:00;2.00;;;0.23;;
29466;SDS011;60968;37.490;-122.288;2023-02-15T15:56:05;0.87;;;0.10;;
29466;SDS011;60968;37.490;-122.288;2023-02-15T15:59:12;1.50;;;0.43;;
29466;SDS011;60968;37.490;-122.288;2023-02-15T16:02:18;1.50;;;0.30;;
29466;SDS011;60968;37.490;-122.288;2023-02-15T16:05:19;2.10;;;0.13;;
29466;SDS011;60968;37.490;-122.288;2023-02-15T16:11:29;2.70;;;0.20;;
29466;SDS011;60968;37.490;-122.288;2023-02-15T16:14:32;0.87;;;0.20;;
29466;SDS011;60968;37.490;-122.288;2023-02-15T16:17:36;1.40;;;0.30;;
29466;SDS011;60968;37.490;-122.288;2023-02-15T16:20:45;0.60;;;0.20;;
29466;SDS011;60968;37.490;-122.288;2023-02-15T16:27:43;0.70;;;0.30;;
29466;SDS011;60968;37.490;-122.288;2023-02-15T16:30:45;0.70;;;0.30;;
29466;SDS011;60968;37.490;-122.288;2023-02-15T16:33:55;2.23;;;0.20;;
29466;SDS011;60968;37.490;-122.288;2023-02-15T16:43:26;0.90;;;0.20;;
29466;SDS011;60968;37.490;-122.288;2023-02-15T16:46:36;0.97;;;0.20;;
29466;SDS011;60968;37.490;-122.288;2023-02-15T16:49:42;0.70;;;0.30;;
29466;SDS011;60968;37.490;-122.288;2023-02-15T16:52:46;2.53;;;0.30;;
29466;SDS011;60968;37.490;-122.288;2023-02-15T16:55:48;1.43;;;0.33;;
29466;SDS011;60968;37.490;-122.288;2023-02-15T16:58:54;1.63;;;0.40;;
29466;SDS011;60968;37.490;-122.288;2023-02-15T17:01:55;0.70;;;0.30;;
29466;SDS011;60968;37.490;-122.288;2023-02-15T17:05:31;0.40;;;0.27;;
29466;SDS011;60968;37.490;-122.288;2023-02-15T17:08:31;0.80;;;0.40;;
29466;SDS011;60968;37.490;-122.288;2023-02-15T17:11:34;2.27;;;0.60;;
29466;SDS011;60968;37.490;-122.288;2023-02-15T17:14:39;1.73;;;0.60;;
29466;SDS011;60968;37.490;-122.288;2023-02-15T17:17:40;1.37;;;0.60;;
29466;SDS011;60968;37.490;-122.288;2023-02-15T17:20:41;2.55;;;0.80;;
29466;SDS011;60968;37.490;-122.288;2023-02-15T17:23:47;1.27;;;1.00;;
29466;SDS011;60968;37.490;-122.288;2023-02-15T17:26:51;6.28;;;1.13;;
29466;SDS011;60968;37.490;-122.288;2023-02-15T17:30:00;0.93;;;0.93;;
29466;SDS011;60968;37.490;-122.288;2023-02-15T17:33:03;1.35;;;0.93;;
29466;SDS011;60968;37.490;-122.288;2023-02-15T17:36:22;1.38;;;0.90;;
29466;SDS011;60968;37.490;-122.288;2023-02-15T17:39:25;1.45;;;0.90;;
29466;SDS011;60968;37.490;-122.288;2023-02-15T17:42:27;2.33;;;0.80;;
29466;SDS011;60968;37.490;-122.288;2023-02-15T17:45:32;2.15;;;0.80;;
29466;SDS011;60968;37.490;-122.288;2023-02-15T17:48:35;1.77;;;1.10;;
29466;SDS011;60968;37.490;-122.288;2023-02-15T17:51:40;1.45;;;0.77;;
29466;SDS011;60968;37.490;-122.288;2023-02-15T17:54:42;2.25;;;0.60;;
29466;SDS011;60968;37.490;-122.288;2023-02-15T17:57:45;4.43;;;0.47;;
29466;SDS011;60968;37.490;-122.288;2023-02-15T18:00:56;1.77;;;0.37;;
29466;SDS011;60968;37.490;-122.288;2023-02-15T18:03:59;4.20;;;0.50;;
29466;SDS011;60968;37.490;-122.288;2023-02-15T18:07:00;1.13;;;0.30;;
29466;SDS011;60968;37.490;-122.288;2023-02-15T18:10:25;1.20;;;0.30;;
29466;SDS011;60968;37.490;-122.288;2023-02-15T18:13:25;1.20;;;0.50;;
29466;SDS011;60968;37.490;-122.288;2023-02-15T18:16:26;1.23;;;0.33;;
29466;SDS011;60968;37.490;-122.288;2023-02-15T18:19:30;0.93;;;0.30;;
29466;SDS011;60968;37.490;-122.288;2023-02-15T18:22:32;0.77;;;0.30;;
29466;SDS011;60968;37.490;-122.288;2023-02-15T18:25:33;1.53;;;0.30;;
29466;SDS011;60968;37.490;-122.288;2023-02-15T18:28:34;0.70;;;0.10;;
29466;SDS011;60968;37.490;-122.288;2023-02-15T18:31:37;0.50;;;0.13;;
29466;SDS011;60968;37.490;-122.288;2023-02-15T18:34:41;3.03;;;0.40;;
29466;SDS011;60968;37.490;-122.288;2023-02-15T18:37:43;1.73;;;0.50;;
29466;SDS011;60968;37.490;-122.288;2023-02-15T18:40:45;0.93;;;0.30;;
29466;SDS011;60968;37.490;-122.288;2023-02-15T18:43:49;1.13;;;0.30;;
29466;SDS011;60968;37.490;-122.288;2023-02-15T18:46:54;0.90;;;0.40;;
29466;SDS011;60968;37.490;-122.288;2023-02-15T18:49:56;0.83;;;0.30;;
29466;SDS011;60968;37.490;-122.288;2023-02-15T18:52:57;0.87;;;0.30;;
29466;SDS011;60968;37.490;-122.288;2023-02-15T18:55:58;1.70;;;0.30;;
29466;SDS011;60968;37.490;-122.288;2023-02-15T18:58:59;0.30;;;0.23;;
29466;SDS011;60968;37.490;-122.288;2023-02-15T19:02:01;2.77;;;0.30;;
29466;SDS011;60968;37.490;-122.288;2023-02-15T19:05:02;4.83;;;0.67;;
29466;SDS011;60968;37.490;-122.288;2023-02-15T19:08:02;2.00;;;0.30;;
29466;SDS011;60968;37.490;-122.288;2023-02-15T19:11:08;2.37;;;0.27;;
29466;SDS011;60968;37.490;-122.288;2023-02-15T19:14:23;1.30;;;0.30;;
29466;SDS011;60968;37.490;-122.288;2023-02-15T19:17:34;1.07;;;0.37;;
29466;SDS011;60968;37.490;-122.288;2023-02-15T19:20:36;0.20;;;0.20;;
29466;SDS011;60968;37.490;-122.288;2023-02-15T19:23:39;1.33;;;0.30;;
29466;SDS011;60968;37.490;-122.288;2023-02-15T19:26:43;0.30;;;0.30;;
29466;SDS011;60968;37.490;-122.288;2023-02-15T19:29:50;0.80;;;0.30;;
29466;SDS011;60968;37.490;-122.288;2023-02-15T19:32:53;1.00;;;0.43;;
29466;SDS011;60968;37.490;-122.288;2023-02-15T19:35:56;1.50;;;0.30;;
29466;SDS011;60968;37.490;-122.288;2023-02-15T19:38:57;0.20;;;0.10;;
29466;SDS011;60968;37.490;-122.288;2023-02-15T19:41:58;3.03;;;0.60;;
29466;SDS011;60968;37.490;-122.288;2023-02-15T19:44:59;2.53;;;0.27;;
29466;SDS011;60968;37.490;-122.288;2023-02-15T19:48:01;3.10;;;0.20;;
29466;SDS011;60968;37.490;-122.288;2023-02-15T19:51:05;1.03;;;0.27;;
29466;SDS011;60968;37.490;-122.288;2023-02-15T19:57:19;0.40;;;0.30;;
29466;SDS011;60968;37.490;-122.288;2023-02-15T20:00:24;0.40;;;0.20;;
29466;SDS011;60968;37.490;-122.288;2023-02-15T20:03:32;0.80;;;0.23;;
29466;SDS011;60968;37.490;-122.288;2023-02-15T20:06:33;0.47;;;0.20;;
29466;SDS011;60968;37.490;-122.288;2023-02-15T20:09:35;1.50;;;0.30;;
29466;SDS011;60968;37.490;-122.288;2023-02-15T20:12:36;0.50;;;0.30;;
29466;SDS011;60968;37.490;-122.288;2023-02-15T20:15:37;0.83;;;0.30;;
29466;SDS011;60968;37.490;-122.288;2023-02-15T20:18:38;0.30;;;0.20;;
29466;SDS011;60968;37.490;-122.288;2023-02-15T20:21:39;1.60;;;0.47;;
29466;SDS011;60968;37.490;-122.288;2023-02-15T20:24:41;2.80;;;0.40;;
29466;SDS011;60968;37.490;-122.288;2023-02-15T20:27:43;1.20;;;0.30;;
29466;SDS011;60968;37.490;-122.288;2023-02-15T20:30:45;1.57;;;0.40;;
29466;SDS011;60968;37.490;-122.288;2023-02-15T20:33:47;0.60;;;0.30;;
29466;SDS011;60968;37.490;-122.288;2023-02-15T20:36:48;2.57;;;0.20;;